Time;durP1;ratioP1;P1;durP2;ratioP2;P2;SDS_P1;SDS_P2;PMS_P1;PMS_P2;Temp;Humidity;BMP_temperature;BMP_pressure;BME280_temperature;BME280_humidity;BME280_pressure;Samples;Min_cycle;Max_cycle;Signal;HPM_P1;HPM_P2
2022/03/14 00:00:23;;;;;;;20.10;10.38;;;;;;;9.98;30.93;101542.69;2119660;92;25691;-78
2022/03/14 00:04:17;;;;;;;16.25;10.45;;;;;;;9.94;30.95;101531.23;2130170;89;26723;-77
2022/03/14 00:07:58;;;;;;;14.70;10.58;;;;;;;9.91;30.99;101533.28;2213539;88;25715;-80
2022/03/14 00:11:49;;;;;;;;;;;;;;;;;;;;;
2022/03/14 00:19:31;;;;;;;;;;;;;;;;;;;;;
2022/03/14 00:22:49;;;;;;;15.20;10.28;;;;;;;9.82;31.04;101533.28;2139125;90;25787;-81
2022/03/14 00:26:22;;;;;;;15.25;10.25;;;;;;;9.80;31.09;101542.76;2165502;88;25725;-77
2022/03/14 00:30:07;;;;;;;16.55;9.88;;;;;;;9.77;31.07;101540.02;2217429;88;25703;-77
2022/03/14 00:33:40;;;;;;;;;;;;;;;;;;;;;
2022/03/14 00:37:33;;;;;;;13.93;9.70;;;;;;;9.73;31.10;101545.49;2223542;85;26138;-81
2022/03/14 00:41:23;;;;;;;14.87;9.25;;;;;;;9.70;31.12;101537.12;2240638;84;25887;-80
2022/03/14 00:48:08;;;;;;;14.53;9.30;;;;;;;9.66;31.19;101538.23;2218159;85;25955;-76
2022/03/14 00:51:33;;;;;;;12.80;8.63;;;;;;;9.63;31.19;101542.88;2037181;94;26482;-77
2022/03/14 00:55:22;;;;;;;13.45;9.53;;;;;;;9.59;31.23;101547.47;2051730;94;25914;-77
2022/03/14 00:59:03;;;;;;;14.07;9.78;;;;;;;9.58;31.26;101542.17;2032809;95;25779;-76
2022/03/14 01:02:43;;;;;;;11.20;8.60;;;;;;;9.54;31.30;101538.95;2042983;94;25765;-77
2022/03/14 01:06:34;;;;;;;14.25;9.73;;;;;;;9.51;31.33;101529.70;2045154;90;25889;-75
2022/03/14 01:10:00;;;;;;;11.70;8.83;;;;;;;9.45;31.35;101533.81;2073077;94;25926;-78
2022/03/14 01:13:32;;;;;;;12.10;8.93;;;;;;;9.42;31.42;101536.69;1976683;98;25932;-76
2022/03/14 01:17:04;;;;;;;17.48;9.23;;;;;;;9.38;31.42;101534.35;1970136;99;25823;-76
2022/03/14 01:20:28;;;;;;;12.03;9.23;;;;;;;9.39;31.41;101542.63;1970188;98;25665;-76
2022/03/14 01:24:30;;;;;;;;;;;;;;;;;;;;;
2022/03/14 01:27:50;;;;;;;15.03;10.20;;;;;;;9.34;31.50;101535.42;1939261;100;26512;-77
2022/03/14 01:35:49;;;;;;;14.55;9.95;;;;;;;9.29;31.56;101534.33;1973700;98;25774;-75
2022/03/14 01:39:12;;;;;;;15.68;9.30;;;;;;;9.26;31.54;101532.46;1965758;99;25932;-76
2022/03/14 01:42:43;;;;;;;11.93;8.28;;;;;;;9.26;31.54;101540.27;1966421;97;25914;-76
2022/03/14 01:46:04;;;;;;;14.65;8.85;;;;;;;9.25;31.56;101534.59;2005364;97;26149;-76
2022/03/14 01:49:29;;;;;;;11.88;9.00;;;;;;;9.24;31.56;101539.30;2089330;93;25739;-76
2022/03/14 01:52:49;;;;;;;12.15;9.03;;;;;;;9.22;31.55;101534.45;2069399;93;25768;-75
2022/03/14 01:56:19;;;;;;;16.00;9.27;;;;;;;9.21;31.54;101537.46;2070973;93;25702;-79
2022/03/14 01:59:40;;;;;;;12.55;7.80;;;;;;;9.20;31.54;101546.06;2104542;93;25442;-76
2022/03/14 02:03:18;;;;;;;15.58;8.88;;;;;;;9.19;31.57;101534.30;2109164;91;25725;-76
2022/03/14 02:06:40;;;;;;;15.83;8.85;;;;;;;9.16;31.60;101543.25;2064868;93;25934;-76
2022/03/14 02:14:04;;;;;;;10.48;8.23;;;;;;;9.12;31.62;101550.02;1940662;98;25873;-76
2022/03/14 02:17:23;;;;;;;14.83;9.35;;;;;;;9.11;31.63;101551.23;1981945;97;25940;-77
2022/03/14 02:20:46;;;;;;;12.07;9.15;;;;;;;9.08;31.64;101555.91;2010012;96;25736;-78
2022/03/14 02:24:15;;;;;;;12.10;8.47;;;;;;;9.07;31.67;101557.11;1977006;99;25819;-77
2022/03/14 02:27:40;;;;;;;12.30;8.67;;;;;;;9.05;31.67;101558.35;1963663;98;25810;-77
2022/03/14 02:31:05;;;;;;;11.18;8.95;;;;;;;9.04;31.67;101554.36;1966045;99;25831;-77
2022/03/14 02:35:06;;;;;;;16.52;8.15;;;;;;;9.01;31.68;101559.03;1997165;94;25982;-78
2022/03/14 02:38:26;;;;;;;11.95;8.85;;;;;;;8.98;31.70;101567.56;2076747;92;25930;-76
2022/03/14 02:42:02;;;;;;;14.23;9.03;;;;;;;8.97;31.75;101563.58;2072846;92;25737;-78
2022/03/14 02:49:49;;;;;;;11.75;8.98;;;;;;;8.91;31.79;101568.47;2058636;88;25803;-77
2022/03/14 02:53:40;;;;;;;13.35;8.45;;;;;;;8.88;31.80;101561.44;2149463;87;25924;-76
2022/03/14 02:57:25;;;;;;;13.00;8.55;;;;;;;8.86;31.83;101566.95;2159706;88;25718;-77
2022/03/14 03:01:23;;;;;;;11.30;8.88;;;;;;;8.84;31.87;101559.88;2161745;89;25730;-77
2022/03/14 03:04:45;;;;;;;12.63;8.40;;;;;;;8.81;31.89;101560.65;2174872;88;25833;-78
2022/03/14 03:08:24;;;;;;;13.13;8.58;;;;;;;8.78;31.91;101564.80;2163721;89;25768;-79
2022/03/14 03:15:27;;;;;;;9.38;7.60;;;;;;;8.72;31.99;101563.67;2098683;90;25849;-80
2022/03/14 03:19:11;;;;;;;12.40;8.60;;;;;;;8.70;32.03;101570.91;2111034;90;25709;-82
2022/03/14 03:22:34;;;;;;;12.18;8.38;;;;;;;8.65;32.08;101574.58;2100409;91;25765;-77
2022/03/14 03:25:55;;;;;;;10.93;9.03;;;;;;;8.64;32.11;101574.48;2108696;93;25735;-76
2022/03/14 03:29:19;;;;;;;8.75;7.92;;;;;;;8.63;32.12;101580.51;2108408;91;25762;-80
2022/03/14 03:32:44;;;;;;;9.15;7.80;;;;;;;8.61;32.09;101583.46;2116477;91;25750;-77
2022/03/14 03:36:14;;;;;;;12.15;7.85;;;;;;;8.60;32.15;101585.55;2127296;92;25675;-76
2022/03/14 03:43:56;;;;;;;10.82;8.13;;;;;;;8.54;32.20;101586.53;2127460;90;25778;-76
2022/03/14 03:47:31;;;;;;;;;;;;;;;;;;;;;
2022/03/14 03:54:35;;;;;;;12.73;7.97;;;;;;;8.46;32.29;101593.95;2032072;96;26031;-76
2022/03/14 03:58:09;;;;;;;10.72;8.80;;;;;;;8.45;32.31;101598.67;2030457;96;25938;-78
2022/03/14 04:01:47;;;;;;;12.00;7.92;;;;;;;8.43;32.33;101597.27;2026117;96;25886;-76
2022/03/14 04:05:26;;;;;;;10.65;7.67;;;;;;;8.42;32.32;101595.50;2028031;95;25878;-78
2022/03/14 04:09:03;;;;;;;12.10;7.90;;;;;;;8.40;32.35;101602.30;2030096;96;25976;-76
2022/03/14 04:12:44;;;;;;;11.33;8.40;;;;;;;8.39;32.38;101602.24;2005730;96;25859;-78
2022/03/14 04:16:17;;;;;;;9.18;7.47;;;;;;;8.36;32.37;101605.53;2034373;94;25812;-76
2022/03/14 04:20:34;;;;;;;;;;;;;;;;;;;;;
2022/03/14 04:24:26;;;;;;;14.93;8.88;;;;;;;8.33;32.41;101609.68;2001838;97;25847;-77
2022/03/14 04:28:09;;;;;;;9.23;8.23;;;;;;;8.28;32.47;101605.55;1993364;97;25485;-77
2022/03/14 04:31:39;;;;;;;10.23;8.13;;;;;;;8.25;32.52;101598.48;2005017;97;25896;-77
2022/03/14 04:35:20;;;;;;;12.65;8.05;;;;;;;8.22;32.54;101600.03;2007491;97;25716;-77
2022/03/14 04:38:52;;;;;;;11.95;8.05;;;;;;;8.20;32.58;101607.76;1878015;104;25976;-76
2022/03/14 04:42:42;;;;;;;12.82;8.83;;;;;;;8.18;32.63;101608.48;1890703;103;25800;-79
2022/03/14 04:46:31;;;;;;;16.40;8.73;;;;;;;8.16;32.64;101616.59;1885016;103;25995;-76
2022/03/14 04:58:02;;;;;;;;;;;;;;;;;;;;;
2022/03/14 05:01:09;;;;;;;10.98;8.50;;;;;;;8.10;32.70;101630.54;1855883;104;25947;-77
2022/03/14 05:12:39;;;;;;;12.43;7.62;;;;;;;8.07;32.80;101645.99;1787068;108;26373;-78
2022/03/14 05:16:15;;;;;;;10.70;8.45;;;;;;;8.07;32.83;101639.09;1794454;105;26228;-75
2022/03/14 05:19:57;;;;;;;15.28;8.45;;;;;;;8.07;32.83;101644.28;1815954;106;25868;-76
2022/03/14 05:23:31;;;;;;;11.33;8.20;;;;;;;8.08;32.87;101639.98;1837968;105;26362;-79
2022/03/14 05:27:03;;;;;;;12.03;8.18;;;;;;;8.07;32.90;101634.30;1838059;104;25841;-82
2022/03/14 05:30:48;;;;;;;9.90;8.20;;;;;;;8.09;32.88;101649.55;1856516;104;25846;-76
2022/03/14 05:34:26;;;;;;;11.33;8.43;;;;;;;8.13;32.89;101647.18;1863475;104;25867;-77
2022/03/14 05:38:09;;;;;;;9.63;8.05;;;;;;;8.17;32.85;101646.56;1857072;104;25724;-77
2022/03/14 05:41:56;;;;;;;;;;;;;;;;;;;;;
2022/03/14 05:50:03;;;;;;;;;;;;;;;;;;;;;
2022/03/14 05:53:57;;;;;;;9.83;8.18;;;;;;;8.28;32.90;101667.50;1902290;101;25861;-78
2022/03/14 05:57:30;;;;;;;13.18;8.85;;;;;;;8.32;32.89;101668.55;1912038;101;25866;-77
2022/03/14 06:01:13;;;;;;;10.75;8.23;;;;;;;8.34;32.89;101665.64;1909809;100;26153;-83
2022/03/14 06:05:07;;;;;;;11.83;9.03;;;;;;;8.38;32.96;101666.73;1906212;100;25993;-78
2022/03/14 06:08:40;;;;;;;11.05;8.38;;;;;;;8.42;32.97;101671.27;1904947;100;25889;-82
2022/03/14 06:12:21;;;;;;;12.33;7.97;;;;;;;8.47;33.11;101669.80;1905269;102;25961;-77
2022/03/14 06:15:47;;;;;;;;;;;;;;;8.50;33.04;101666.98;1849823;103;25929;-77
2022/03/14 06:19:27;;;;;;;13.05;8.13;;;;;;;8.56;33.05;101668.98;1801119;106;26220;-77
2022/03/14 06:23:10;;;;;;;11.68;8.85;;;;;;;8.59;33.06;101667.84;1737048;110;25889;-79
2022/03/14 06:26:37;;;;;;;14.00;9.28;;;;;;;8.64;33.10;101670.67;1777489;107;25966;-76
2022/03/14 06:30:15;;;;;;;13.75;9.20;;;;;;;8.69;33.19;101673.13;1795235;107;25896;-80
2022/03/14 06:33:53;;;;;;;10.55;8.63;;;;;;;8.74;33.18;101677.76;1754135;110;25476;-76
2022/03/14 06:37:33;;;;;;;10.58;8.30;;;;;;;8.81;33.17;101669.87;1741118;111;25957;-77
2022/03/14 06:41:46;;;;;;;19.67;8.33;;;;;;;8.84;33.23;101667.42;1723349;113;26031;-78
2022/03/14 06:45:35;;;;;;;;;;;;;;;;;;;;;
2022/03/14 06:49:00;;;;;;;12.93;9.13;;;;;;;8.98;33.15;101668.13;1693626;115;26105;-83
2022/03/14 06:52:31;;;;;;;12.07;8.33;;;;;;;9.05;33.12;101677.13;1705984;111;26087;-77
2022/03/14 06:55:58;;;;;;;11.78;8.85;;;;;;;9.11;33.24;101672.21;1692825;114;26081;-80
2022/03/14 06:59:25;;;;;;;15.03;8.75;;;;;;;9.18;33.28;101680.84;1704136;113;27910;-78
2022/03/14 07:02:46;;;;;;;13.25;8.35;;;;;;;9.25;33.18;101680.32;1705581;113;25934;-78
2022/03/14 07:10:14;;;;;;;27.32;9.23;;;;;;;9.40;33.05;101681.47;1706192;113;25964;-86
2022/03/14 07:13:39;;;;;;;13.35;7.95;;;;;;;9.48;33.11;101684.44;1685618;114;25883;-79
2022/03/14 07:17:31;;;;;;;;;;;;;;;;;;;;;
2022/03/14 07:21:14;;;;;;;;;;;;;;;;;;;;;
2022/03/14 07:25:00;;;;;;;13.70;8.70;;;;;;;9.74;32.99;101686.59;1767990;107;25983;-83
2022/03/14 07:28:34;;;;;;;10.70;8.63;;;;;;;9.82;32.97;101690.48;1804437;105;25811;-79
2022/03/14 07:32:18;;;;;;;12.47;8.53;;;;;;;9.93;32.90;101693.59;1804785;107;26000;-76
2022/03/14 07:35:50;;;;;;;11.85;8.25;;;;;;;10.02;32.80;101693.11;1931996;100;26053;-80
2022/03/14 07:39:16;;;;;;;15.48;9.35;;;;;;;10.18;32.71;101690.39;1932500;100;25814;-77
2022/03/14 07:43:01;;;;;;;;;;;;;;;;;;;;;
2022/03/14 07:46:35;;;;;;;12.35;9.00;;;;;;;14.76;30.61;101686.44;1892247;100;26266;-78
2022/03/14 07:50:00;;;;;;;10.48;8.75;;;;;;;18.17;27.79;101691.27;1918916;100;25900;-77
2022/03/14 07:53:54;;;;;;;10.68;9.33;;;;;;;20.81;25.54;101695.19;1906176;101;25947;-78
2022/03/14 08:01:32;;;;;;;;;;;;;;;;;;;;;
2022/03/14 08:05:04;;;;;;;9.28;7.58;;;;;;;27.02;19.48;101717.77;1857479;103;25865;-82
2022/03/14 08:08:47;;;;;;;9.08;8.15;;;;;;;28.45;18.24;101720.30;1903377;101;25816;-77
2022/03/14 08:12:29;;;;;;;7.83;6.97;;;;;;;29.83;17.12;101731.52;1894617;101;25915;-80
2022/03/14 08:16:02;;;;;;;8.35;7.55;;;;;;;31.07;16.20;101728.67;1881446;104;25894;-81
2022/03/14 08:19:44;;;;;;;8.90;7.15;;;;;;;32.00;15.47;101734.66;1864838;101;26140;-82
2022/03/14 08:23:09;;;;;;;9.95;9.00;;;;;;;32.92;14.92;101732.61;1808978;107;26167;-74
2022/03/14 08:26:29;;;;;;;17.62;10.45;;;;;;;33.73;14.52;101734.45;1847215;105;25888;-74
2022/03/14 08:29:50;;;;;;;12.55;11.25;;;;;;;32.25;12.93;101727.67;1855269;101;25836;-73
2022/03/14 08:33:11;;;;;;;12.30;11.08;;;;;;;30.74;12.77;101721.44;1925105;101;25827;-78
2022/03/14 08:36:35;;;;;;;11.93;10.90;;;;;;;29.67;12.90;101726.30;2032637;94;25702;-70
2022/03/14 08:39:56;;;;;;;12.33;10.95;;;;;;;28.17;13.22;101719.73;2079502;93;25752;-68
2022/03/14 08:43:19;;;;;;;11.50;10.30;;;;;;;27.97;13.75;101726.98;2121116;90;25674;-70
2022/03/14 08:46:41;;;;;;;13.48;10.88;;;;;;;27.88;14.05;101722.36;2176110;89;25735;-69
2022/03/14 08:50:04;;;;;;;15.78;11.53;;;;;;;28.03;14.12;101719.25;2177941;87;25777;-70
2022/03/14 08:53:25;;;;;;;13.20;11.93;;;;;;;28.15;13.68;101712.67;2190692;88;25339;-85
2022/03/14 08:56:46;;;;;;;16.45;11.80;;;;;;;28.20;13.74;101715.63;2227004;83;26519;-75
2022/03/14 09:00:08;;;;;;;14.60;11.38;;;;;;;28.22;13.58;101709.77;2341824;83;26303;-69
2022/03/14 09:03:30;;;;;;;16.23;11.75;;;;;;;28.20;13.72;101718.77;2356768;82;25670;-70
2022/03/14 09:06:51;;;;;;;14.55;11.80;;;;;;;28.05;13.35;101710.71;2366470;83;25983;-69
2022/03/14 09:10:48;;;;;;;;;;;;;;;;;;;;;
2022/03/14 09:14:15;;;;;;;15.95;12.93;;;;;;;27.24;13.62;101716.38;2302341;84;25937;-73
2022/03/14 09:17:55;;;;;;;13.27;11.97;;;;;;;26.97;14.06;101707.64;2314894;84;25706;-70
2022/03/14 09:21:16;;;;;;;15.05;12.25;;;;;;;26.96;13.88;101709.87;2293814;84;25219;-69
2022/03/14 09:24:38;;;;;;;15.98;13.50;;;;;;;26.02;13.71;101701.59;2302795;84;25763;-70
2022/03/14 09:28:00;;;;;;;13.83;12.50;;;;;;;25.14;14.41;101702.23;2262239;83;25762;-68
2022/03/14 09:31:21;;;;;;;15.05;13.15;;;;;;;25.40;14.59;101693.80;2296813;84;25823;-69
2022/03/14 09:34:42;;;;;;;14.65;12.37;;;;;;;25.74;14.73;101697.21;2297520;84;26616;-72
2022/03/14 09:38:03;;;;;;;17.35;13.45;;;;;;;25.58;14.42;101700.17;2297043;84;25761;-69
2022/03/14 09:41:28;;;;;;;15.60;14.10;;;;;;;26.09;14.53;101693.45;2275728;84;25745;-73
2022/03/14 09:45:13;;;;;;;15.25;13.75;;;;;;;25.82;14.28;101694.00;2290714;84;25604;-77
2022/03/14 09:48:45;;;;;;;16.95;14.35;;;;;;;26.05;14.18;101684.17;2234966;86;25890;-71
2022/03/14 09:52:08;;;;;;;17.48;14.13;;;;;;;25.55;14.10;101688.63;2248585;85;25735;-69
2022/03/14 09:55:34;;;;;;;15.30;13.10;;;;;;;25.35;14.47;101678.34;2254823;85;25807;-74
2022/03/14 09:58:55;;;;;;;15.90;12.75;;;;;;;25.33;14.65;101676.12;2248568;85;25781;-73
2022/03/14 10:02:16;;;;;;;14.38;12.88;;;;;;;25.95;14.63;101680.80;2253467;85;25854;-77
2022/03/14 10:05:36;;;;;;;15.15;13.25;;;;;;;26.13;14.10;101679.11;2250981;84;25852;-80
2022/03/14 10:08:57;;;;;;;16.52;14.00;;;;;;;26.04;13.99;101680.63;2253810;85;25734;-71
2022/03/14 10:12:20;;;;;;;15.83;12.50;;;;;;;26.28;14.08;101679.23;2264231;85;25691;-76
2022/03/14 10:15:41;;;;;;;17.30;14.25;;;;;;;26.08;14.14;101676.97;2265137;85;25786;-72
2022/03/14 10:19:05;;;;;;;16.15;11.97;;;;;;;26.37;14.21;101683.06;2304782;84;25738;-69
2022/03/14 10:22:38;;;;;;;24.35;13.25;;;;;;;26.69;13.93;101681.48;2298736;83;25913;-71
2022/03/14 10:26:00;;;;;;;14.53;13.05;;;;;;;26.56;14.00;101686.27;2305519;83;25860;-69
2022/03/14 10:29:25;;;;;;;19.55;13.62;;;;;;;26.76;14.04;101672.86;2296616;83;25690;-70
2022/03/14 10:32:47;;;;;;;20.95;12.53;;;;;;;27.38;13.96;101670.96;2311488;85;26382;-79
2022/03/14 10:36:11;;;;;;;14.90;13.58;;;;;;;27.95;13.43;101671.68;2294005;83;25875;-72
2022/03/14 10:39:33;;;;;;;20.23;13.00;;;;;;;27.54;13.34;101666.97;2311246;84;25618;-72
2022/03/14 10:43:05;;;;;;;22.32;14.33;;;;;;;27.39;13.60;101666.89;2297943;84;26189;-74
2022/03/14 10:46:32;;;;;;;;;;;;;;;26.72;13.53;101669.38;2330020;82;26339;-69
2022/03/14 10:49:54;;;;;;;14.53;13.03;;;;;;;26.67;13.61;101665.08;2337094;82;25385;-76
2022/03/14 10:53:19;;;;;;;16.52;12.93;;;;;;;26.02;13.70;101677.55;2318282;82;26316;-73
2022/03/14 10:56:40;;;;;;;18.07;12.85;;;;;;;26.08;13.93;101672.96;2348596;83;25795;-77
2022/03/14 11:00:14;;;;;;;14.07;12.58;;;;;;;26.41;14.05;101656.25;2343360;82;25768;-75
2022/03/14 11:03:46;;;;;;;16.37;13.75;;;;;;;26.43;13.64;101649.09;2341697;82;26625;-75
2022/03/14 11:07:10;;;;;;;14.23;12.93;;;;;;;25.83;13.82;101661.02;2353291;82;25584;-81
2022/03/14 11:10:39;;;;;;;14.45;12.68;;;;;;;25.58;14.01;101650.77;2362543;82;25698;-69
2022/03/14 11:14:08;;;;;;;17.67;12.35;;;;;;;25.02;14.06;101649.05;2343072;82;25632;-81
2022/03/14 11:17:33;;;;;;;14.87;13.40;;;;;;;24.02;14.47;101636.61;2314881;82;25820;-70
2022/03/14 11:20:54;;;;;;;17.12;12.65;;;;;;;23.85;15.07;101636.39;2333159;83;25716;-80
2022/03/14 11:24:18;;;;;;;13.43;12.00;;;;;;;24.15;15.00;101629.36;2344181;82;25659;-81
2022/03/14 11:27:53;;;;;;;15.80;12.60;;;;;;;24.57;15.08;101632.39;2359434;82;25900;-79
2022/03/14 11:31:16;;;;;;;23.15;12.05;;;;;;;24.66;14.88;101626.02;2350956;83;25761;-79
2022/03/14 11:34:41;;;;;;;15.60;12.40;;;;;;;24.84;15.01;101627.09;2388323;82;26319;-73
2022/03/14 11:38:08;;;;;;;14.45;11.15;;;;;;;24.82;14.90;101620.02;2354224;81;25724;-81
2022/03/14 11:41:28;;;;;;;13.20;11.85;;;;;;;24.61;14.71;101623.89;2375078;81;26313;-76
2022/03/14 11:45:02;;;;;;;11.68;10.32;;;;;;;23.86;14.95;101617.75;2370651;82;25553;-74
2022/03/14 11:48:32;;;;;;;12.88;11.57;;;;;;;23.61;15.13;101609.55;2355479;82;25832;-73
2022/03/14 11:52:16;;;;;;;16.12;11.88;;;;;;;23.89;15.22;101612.35;2355265;82;25805;-81
2022/03/14 11:55:41;;;;;;;13.58;11.12;;;;;;;24.33;15.23;101606.90;2351163;82;25905;-74
2022/03/14 11:59:08;;;;;;;11.70;10.50;;;;;;;24.95;15.08;101605.57;2345231;81;25853;-73
2022/03/14 12:02:41;;;;;;;12.68;10.48;;;;;;;25.41;14.78;101606.11;2350268;82;25705;-73
2022/03/14 12:06:08;;;;;;;11.43;10.40;;;;;;;25.77;14.75;101599.19;2327050;81;25752;-74
2022/03/14 12:09:34;;;;;;;14.10;11.83;;;;;;;26.14;14.29;101604.67;2349911;82;25627;-79
2022/03/14 12:12:59;;;;;;;11.57;10.53;;;;;;;25.48;14.30;101601.11;2335534;82;25812;-73
2022/03/14 12:16:40;;;;;;;14.60;10.28;;;;;;;25.36;14.38;101590.19;2334877;82;25717;-73
2022/03/14 12:20:18;;;;;;;12.98;10.48;;;;;;;25.61;14.60;101591.92;2352668;82;25586;-73
2022/03/14 12:23:41;;;;;;;;;;;;;;;25.51;14.27;101583.67;2325941;83;25573;-81
2022/03/14 12:27:29;;;;;;;11.90;9.90;;;;;;;25.52;14.34;101571.22;2323108;83;25663;-72
2022/03/14 12:30:51;;;;;;;13.35;10.38;;;;;;;25.79;14.59;101569.33;2325930;83;25687;-80
2022/03/14 12:34:16;;;;;;;16.62;10.90;;;;;;;25.82;13.85;101566.63;2280748;83;25649;-80
2022/03/14 12:37:53;;;;;;;16.75;9.90;;;;;;;25.13;14.16;101557.70;2331603;82;25290;-78
2022/03/14 12:41:23;;;;;;;13.58;10.80;;;;;;;24.78;14.49;101567.17;2323263;82;25571;-77
2022/03/14 12:45:08;;;;;;;13.05;9.08;;;;;;;24.71;14.68;101557.51;2328497;83;25929;-76
2022/03/14 12:48:34;;;;;;;15.03;10.32;;;;;;;24.46;14.34;101550.33;2289724;84;25885;-72
2022/03/14 12:52:14;;;;;;;11.70;10.58;;;;;;;24.10;14.67;101551.28;2301025;84;25735;-73
2022/03/14 12:55:36;;;;;;;15.25;9.98;;;;;;;24.23;14.58;101557.30;2296554;84;25829;-71
2022/03/14 12:59:04;;;;;;;11.83;10.45;;;;;;;23.64;14.89;101538.97;2296155;83;25257;-72
2022/03/14 13:02:27;;;;;;;11.22;8.30;;;;;;;23.37;15.13;101544.16;2351446;83;25221;-73
2022/03/14 13:05:54;;;;;;;13.95;9.23;;;;;;;22.86;14.94;101549.94;2354509;83;25788;-71
2022/03/14 13:09:30;;;;;;;12.03;9.18;;;;;;;22.18;15.20;101538.03;2361651;83;25659;-72
2022/03/14 13:12:52;;;;;;;16.42;10.95;;;;;;;22.05;15.57;101536.73;2344467;83;25657;-73
2022/03/14 13:16:16;;;;;;;26.12;11.25;;;;;;;22.31;15.72;101535.29;2356048;83;26369;-78
2022/03/14 13:19:38;;;;;;;12.75;9.03;;;;;;;22.33;15.95;101536.59;2354792;83;25694;-71
2022/03/14 13:23:03;;;;;;;10.25;9.25;;;;;;;22.39;15.77;101518.84;2364203;83;25672;-72
2022/03/14 13:26:25;;;;;;;13.40;9.70;;;;;;;22.03;15.71;101529.20;2336211;83;25959;-71
2022/03/14 13:29:46;;;;;;;11.88;9.48;;;;;;;21.87;15.96;101525.77;2355480;83;25756;-72
2022/03/14 13:33:26;;;;;;;13.15;9.05;;;;;;;21.74;16.26;101524.06;2351931;83;25939;-71
2022/03/14 13:36:54;;;;;;;12.78;10.80;;;;;;;21.98;16.27;101528.81;2355990;83;25667;-71
2022/03/14 13:40:23;;;;;;;12.68;10.23;;;;;;;21.56;16.25;101531.63;2357888;83;26347;-77
2022/03/14 13:43:54;;;;;;;12.85;10.53;;;;;;;21.21;16.74;101533.02;2356875;83;25808;-72
2022/03/14 13:47:23;;;;;;;16.15;10.00;;;;;;;21.65;16.82;101519.66;2358739;83;25670;-72
2022/03/14 13:50:46;;;;;;;11.08;9.80;;;;;;;22.07;16.69;101511.48;2351060;83;25717;-72
2022/03/14 13:54:17;;;;;;;11.30;10.08;;;;;;;22.43;16.50;101521.47;2361636;83;25758;-71
2022/03/14 13:57:38;;;;;;;15.15;10.00;;;;;;;22.37;16.19;101514.42;2357357;83;25646;-71
2022/03/14 14:00:59;;;;;;;11.90;9.10;;;;;;;22.59;16.12;101522.67;2358048;83;25910;-78
2022/03/14 14:04:30;;;;;;;11.85;9.28;;;;;;;22.41;16.00;101518.84;2363289;83;25776;-73
2022/03/14 14:07:57;;;;;;;11.45;9.50;;;;;;;22.23;16.11;101510.98;2348116;83;25142;-77
2022/03/14 14:11:26;;;;;;;17.77;9.15;;;;;;;22.00;16.11;101514.61;2356133;83;25709;-72
2022/03/14 14:14:57;;;;;;;10.45;9.25;;;;;;;21.95;16.19;101517.76;2346058;83;27045;-79
2022/03/14 14:18:39;;;;;;;13.78;9.13;;;;;;;21.88;16.37;101518.23;2351422;81;25955;-79
2022/03/14 14:21:58;;;;;;;11.57;8.78;;;;;;;21.56;16.35;101507.73;2334270;81;25691;-79
2022/03/14 14:25:26;;;;;;;23.80;10.00;;;;;;;21.37;16.62;101510.04;2349298;81;25714;-72
2022/03/14 14:28:47;;;;;;;12.97;9.97;;;;;;;21.40;16.52;101516.22;2333915;81;25609;-74
2022/03/14 14:32:25;;;;;;;14.25;9.45;;;;;;;20.85;16.79;101521.56;2326213;81;25678;-73
2022/03/14 14:35:51;;;;;;;12.65;9.20;;;;;;;20.37;17.02;101519.31;2346914;81;25792;-73
2022/03/14 14:39:15;;;;;;;11.08;9.98;;;;;;;19.37;17.37;101519.36;2351006;82;25879;-77
2022/03/14 14:42:39;;;;;;;15.70;10.23;;;;;;;18.63;17.85;101515.30;2362676;83;25725;-75
2022/03/14 14:46:05;;;;;;;12.15;10.32;;;;;;;18.12;18.36;101510.86;2331475;81;25677;-75
2022/03/14 14:49:40;;;;;;;16.73;9.13;;;;;;;17.74;18.70;101516.96;2316704;82;25678;-76
2022/03/14 14:53:10;;;;;;;9.78;8.30;;;;;;;18.06;19.82;101517.83;2330391;83;25685;-78
2022/03/14 14:56:34;;;;;;;13.00;8.65;;;;;;;18.66;19.73;101525.87;2350076;82;25935;-79
2022/03/14 15:00:05;;;;;;;11.95;7.92;;;;;;;19.09;19.64;101528.44;2297444;83;25745;-77
2022/03/14 15:03:33;;;;;;;9.23;8.40;;;;;;;19.40;19.58;101527.75;2283011;83;25845;-78
2022/03/14 15:07:11;;;;;;;11.95;8.20;;;;;;;19.61;19.52;101522.59;2263275;86;25338;-78
2022/03/14 15:10:42;;;;;;;13.03;7.22;;;;;;;19.74;19.33;101526.19;2218100;86;25754;-77
2022/03/14 15:14:37;;;;;;;9.08;8.13;;;;;;;19.81;19.42;101527.56;2124145;90;27261;-83
2022/03/14 15:18:21;;;;;;;9.35;7.83;;;;;;;19.81;19.57;101524.92;2098334;92;25755;-77
2022/03/14 15:22:12;;;;;;;11.68;8.23;;;;;;;19.75;19.48;101528.86;2098453;92;26339;-76
2022/03/14 15:25:44;;;;;;;9.93;8.80;;;;;;;19.71;19.70;101528.41;2077471;92;25778;-82
2022/03/14 15:29:13;;;;;;;12.93;6.78;;;;;;;19.67;19.62;101525.27;2098230;92;25798;-75
2022/03/14 15:33:09;;;;;;;22.55;7.22;;;;;;;19.58;21.81;101522.13;2099116;92;25913;-81
2022/03/14 15:36:33;;;;;;;35.83;7.45;;;;;;;19.79;23.65;101526.66;1973455;98;26330;-78
2022/03/14 15:39:59;;;;;;;;;;;;;;;;;;;;;
2022/03/14 15:43:20;;;;;;;9.80;8.30;;;;;;;20.09;25.51;101524.13;1927856;100;26070;-80
2022/03/14 15:50:23;;;;;;;13.18;11.00;;;;;;;19.68;23.25;101508.55;1945073;101;25796;-78
2022/03/14 15:53:48;;;;;;;13.90;10.72;;;;;;;19.20;22.69;101510.45;1896930;102;32432;-77
2022/03/14 15:57:44;;;;;;;16.40;11.22;;;;;;;18.81;22.38;101506.67;1801390;107;25801;-78
2022/03/14 16:01:35;;;;;;;14.50;11.00;;;;;;;18.53;22.30;101511.70;1817994;107;26232;-77
2022/03/14 16:05:26;;;;;;;16.12;11.53;;;;;;;18.28;22.36;101506.60;1790367;108;25908;-79
2022/03/14 16:09:15;;;;;;;16.87;12.07;;;;;;;18.06;22.40;101507.27;1789511;108;25849;-82
2022/03/14 16:12:57;;;;;;;17.87;11.65;;;;;;;17.84;22.58;101512.72;1759857;111;35634;-79
2022/03/14 16:16:59;;;;;;;;;;;;;;;;;;;;;
2022/03/14 16:20:39;;;;;;;14.33;11.25;;;;;;;17.70;23.18;101514.72;1792569;107;25797;-79
2022/03/14 16:24:18;;;;;;;14.70;10.10;;;;;;;17.68;23.22;101515.16;1811830;107;26002;-80
2022/03/14 16:27:59;;;;;;;16.90;10.08;;;;;;;17.66;23.25;101513.36;1793105;106;25918;-78
2022/03/14 16:31:35;;;;;;;11.78;9.88;;;;;;;17.62;23.30;101515.52;1790720;104;25936;-80
2022/03/14 16:35:31;;;;;;;17.00;10.38;;;;;;;17.53;23.35;101521.54;1876555;103;25877;-78
2022/03/14 16:39:00;;;;;;;57.98;20.72;;;;;;;17.44;23.33;101510.86;1874801;102;26226;-79
2022/03/14 16:42:29;;;;;;;43.10;17.85;;;;;;;17.53;29.15;101508.35;1908059;102;27482;-73
2022/03/14 16:46:07;;;;;;;45.83;16.80;;;;;;;18.00;30.65;101519.07;1943835;98;25909;-79
2022/03/14 16:50:03;;;;;;;30.45;14.93;;;;;;;17.71;28.86;101518.23;2015433;94;26395;-79
2022/03/14 16:53:51;;;;;;;24.30;14.07;;;;;;;17.57;28.65;101515.43;2049424;94;26347;-81
2022/03/14 16:57:57;;;;;;;;;;;;;;;;;;;;;
2022/03/14 17:01:44;;;;;;;21.48;12.90;;;;;;;17.32;28.10;101525.20;2181707;89;25840;-84
2022/03/14 17:05:34;;;;;;;24.27;12.85;;;;;;;17.18;27.73;101528.97;2168545;88;25840;-81
2022/03/14 17:12:49;;;;;;;19.45;11.33;;;;;;;17.02;27.10;101529.59;1992465;97;25393;-86
2022/03/14 17:16:45;;;;;;;;;;;;;;;;;;;;;
2022/03/14 17:21:02;;;;;;;;;;;;;;;;;;;;;
2022/03/14 17:28:58;;;;;;;;;;;;;;;;;;;;;
2022/03/14 17:37:33;;;;;;;18.07;11.33;;;;;;;16.50;26.16;101505.46;1990224;98;25854;-80
2022/03/14 17:41:33;;;;;;;13.15;10.25;;;;;;;16.39;26.08;101507.00;1953396;99;25901;-79
2022/03/14 17:49:07;;;;;;;16.82;10.68;;;;;;;16.22;25.97;101508.01;1866160;102;25983;-81
2022/03/14 17:52:50;;;;;;;14.90;10.53;;;;;;;16.16;25.95;101505.25;1878683;102;25939;-80
2022/03/14 17:56:44;;;;;;;;;;;;;;;;;;;;;
2022/03/14 18:00:28;;;;;;;16.70;11.93;;;;;;;15.98;25.97;101508.87;1887767;101;25789;-81
2022/03/14 18:04:30;;;;;;;20.62;12.35;;;;;;;15.91;25.96;101508.29;1847987;105;25671;-82
2022/03/14 18:08:08;;;;;;;19.60;11.90;;;;;;;15.83;25.97;101505.52;1842180;105;26064;-81
2022/03/14 18:15:43;;;;;;;15.88;12.05;;;;;;;15.68;26.00;101517.02;1811362;105;25948;-81
2022/03/14 18:19:37;;;;;;;19.73;12.30;;;;;;;15.61;26.06;101514.66;1807923;105;25935;-85
2022/03/14 18:23:13;;;;;;;18.48;12.33;;;;;;;15.53;26.11;101518.45;1766579;109;26045;-81